sensor_id;sensor_type;location;lat;lon;timestamp;pressure;altitude;pressure_sealevel;temperature;humidity
61676;BME280;47574;52.090;5.244;2022-12-15T00:38:55;100645.0;;;3.25;44.25
61676;BME280;47574;52.090;5.244;2022-12-15T00:40:31;100646.0;;;3.24;44.03
61676;BME280;47574;52.090;5.244;2022-12-15T00:42:08;100651.0;;;3.03;44.21
61676;BME280;47574;52.090;5.244;2022-12-15T00:43:45;100647.0;;;2.89;44.89
61676;BME280;47574;52.090;5.244;2022-12-15T00:46:53;100647.0;;;3.19;44.28
61676;BME280;47574;52.090;5.244;2022-12-15T00:48:29;100653.0;;;3.15;43.98
61676;BME280;47574;52.090;5.244;2022-12-15T00:51:10;100651.0;;;2.84;44.71
61676;BME280;47574;52.090;5.244;2022-12-15T01:21:54;100671.0;;;3.5;44.27
61676;BME280;47574;52.090;5.244;2022-12-15T01:23:30;100680.0;;;3.23;43.98
61676;BME280;47574;52.090;5.244;2022-12-15T01:25:09;100681.0;;;3.06;44.47
61676;BME280;47574;52.090;5.244;2022-12-15T01:28:22;100680.0;;;2.84;45.03
61676;BME280;47574;52.090;5.244;2022-12-15T01:29:59;100681.0;;;2.87;44.98
61676;BME280;47574;52.090;5.244;2022-12-15T01:31:36;100677.0;;;2.71;45.09
61676;BME280;47574;52.090;5.244;2022-12-15T01:34:53;100683.0;;;2.57;45.4
61676;BME280;47574;52.090;5.244;2022-12-15T01:36:28;100680.0;;;2.67;45.23
61676;BME280;47574;52.090;5.244;2022-12-15T01:38:05;100678.0;;;2.39;45.71
61676;BME280;47574;52.090;5.244;2022-12-15T01:42:26;100685.0;;;2.75;44.76
61676;BME280;47574;52.090;5.244;2022-12-15T01:44:15;100683.0;;;2.83;44.61
61676;BME280;47574;52.090;5.244;2022-12-15T01:46:02;100691.0;;;2.56;45.2
61676;BME280;47574;52.090;5.244;2022-12-15T01:49:21;100699.0;;;2.94;44.88
61676;BME280;47574;52.090;5.244;2022-12-15T01:51:10;100690.0;;;2.8;44.99
61676;BME280;47574;52.090;5.244;2022-12-15T01:52:48;100695.0;;;2.52;45.78
61676;BME280;47574;52.090;5.244;2022-12-15T01:54:27;100701.0;;;2.9;44.99
61676;BME280;47574;52.090;5.244;2022-12-15T01:57:45;100699.0;;;2.64;45.2
61676;BME280;47574;52.090;5.244;2022-12-15T01:59:28;100708.0;;;2.65;45.21
61676;BME280;47574;52.090;5.244;2022-12-15T02:01:07;100699.0;;;2.52;45.15
61676;BME280;47574;52.090;5.244;2022-12-15T02:02:44;100699.0;;;2.73;44.81
61676;BME280;47574;52.090;5.244;2022-12-15T02:05:59;100702.0;;;2.87;44.42
61676;BME280;47574;52.090;5.244;2022-12-15T02:07:38;100708.0;;;2.64;44.76
61676;BME280;47574;52.090;5.244;2022-12-15T02:09:15;100705.0;;;2.65;44.99
61676;BME280;47574;52.090;5.244;2022-12-15T02:12:51;100701.0;;;2.75;44.67
61676;BME280;47574;52.090;5.244;2022-12-15T02:14:44;100700.0;;;2.46;45.33
61676;BME280;47574;52.090;5.244;2022-12-15T02:16:34;100697.0;;;2.58;45.23
61676;BME280;47574;52.090;5.244;2022-12-15T02:18:21;100698.0;;;2.56;45.33
61676;BME280;47574;52.090;5.244;2022-12-15T02:20:25;100699.0;;;2.69;45.17
61676;BME280;47574;52.090;5.244;2022-12-15T02:22:19;100701.0;;;2.87;44.65
61676;BME280;47574;52.090;5.244;2022-12-15T02:29:14;100703.0;;;2.6;45.31
61676;BME280;47574;52.090;5.244;2022-12-15T02:32:07;100701.0;;;2.9;44.83
61676;BME280;47574;52.090;5.244;2022-12-15T02:33:50;100700.0;;;2.88;44.59
61676;BME280;47574;52.090;5.244;2022-12-15T02:35:34;100709.0;;;2.89;44.78
61676;BME280;47574;52.090;5.244;2022-12-15T02:37:18;100706.0;;;3.01;44.44
61676;BME280;47574;52.090;5.244;2022-12-15T02:38:57;100703.0;;;2.92;44.67
61676;BME280;47574;52.090;5.244;2022-12-15T02:40:35;100706.0;;;2.92;44.41
61676;BME280;47574;52.090;5.244;2022-12-15T02:43:49;100707.0;;;2.94;44.22
61676;BME280;47574;52.090;5.244;2022-12-15T02:45:31;100705.0;;;2.72;44.68
61676;BME280;47574;52.090;5.244;2022-12-15T02:47:27;100705.0;;;2.73;44.7
61676;BME280;47574;52.090;5.244;2022-12-15T02:49:11;100703.0;;;2.79;44.67
61676;BME280;47574;52.090;5.244;2022-12-15T02:51:06;100706.0;;;2.61;44.97
61676;BME280;47574;52.090;5.244;2022-12-15T02:54:48;100705.0;;;2.59;45.13
61676;BME280;47574;52.090;5.244;2022-12-15T02:56:37;100708.0;;;2.62;44.78
61676;BME280;47574;52.090;5.244;2022-12-15T02:58:24;100708.0;;;2.52;44.9
61676;BME280;47574;52.090;5.244;2022-12-15T03:00:08;100709.0;;;2.67;44.65
61676;BME280;47574;52.090;5.244;2022-12-15T03:01:48;100716.0;;;2.63;44.51
61676;BME280;47574;52.090;5.244;2022-12-15T03:03:29;100721.0;;;2.63;44.66
61676;BME280;47574;52.090;5.244;2022-12-15T03:06:44;100713.0;;;2.36;44.85
61676;BME280;47574;52.090;5.244;2022-12-15T03:08:28;100714.0;;;2.44;44.55
61676;BME280;47574;52.090;5.244;2022-12-15T03:10:05;100714.0;;;2.44;44.64
61676;BME280;47574;52.090;5.244;2022-12-15T03:13:18;100716.0;;;2.12;45.24
61676;BME280;47574;52.090;5.244;2022-12-15T03:14:55;100718.0;;;2.09;45.15
61676;BME280;47574;52.090;5.244;2022-12-15T03:16:31;100720.0;;;2.13;45.47
61676;BME280;47574;52.090;5.244;2022-12-15T03:18:08;100723.0;;;2.19;45.41
61676;BME280;47574;52.090;5.244;2022-12-15T03:21:21;100722.0;;;2.11;45.29
61676;BME280;47574;52.090;5.244;2022-12-15T03:22:57;100724.0;;;1.98;45.87
61676;BME280;47574;52.090;5.244;2022-12-15T03:24:33;100724.0;;;2.19;45.35
61676;BME280;47574;52.090;5.244;2022-12-15T03:27:47;100720.0;;;2.21;45.58
61676;BME280;47574;52.090;5.244;2022-12-15T03:29:23;100730.0;;;2.65;45.05
61676;BME280;47574;52.090;5.244;2022-12-15T03:30:59;100740.0;;;2.89;44.67
61676;BME280;47574;52.090;5.244;2022-12-15T03:34:11;100736.0;;;3.16;44.48
61676;BME280;47574;52.090;5.244;2022-12-15T03:35:49;100734.0;;;2.96;44.57
61676;BME280;47574;52.090;5.244;2022-12-15T03:37:25;100737.0;;;3.24;44.27
61676;BME280;47574;52.090;5.244;2022-12-15T03:39:01;100739.0;;;3.22;44.52
61676;BME280;47574;52.090;5.244;2022-12-15T03:42:46;100736.0;;;3.05;44.66
61676;BME280;47574;52.090;5.244;2022-12-15T03:44:22;100736.0;;;3.11;44.55
61676;BME280;47574;52.090;5.244;2022-12-15T03:45:58;100740.0;;;3.28;44.52
61676;BME280;47574;52.090;5.244;2022-12-15T03:47:35;100740.0;;;3.25;44.87
61676;BME280;47574;52.090;5.244;2022-12-15T03:50:51;100748.0;;;3.66;44.34
61676;BME280;47574;52.090;5.244;2022-12-15T03:52:27;100748.0;;;3.43;44.35
61676;BME280;47574;52.090;5.244;2022-12-15T03:54:05;100743.0;;;3.22;45.0
61676;BME280;47574;52.090;5.244;2022-12-15T03:57:18;100744.0;;;3.37;45.05
61676;BME280;47574;52.090;5.244;2022-12-15T03:58:54;100745.0;;;3.61;44.57
61676;BME280;47574;52.090;5.244;2022-12-15T04:00:30;100743.0;;;3.2;45.07
61676;BME280;47574;52.090;5.244;2022-12-15T04:02:08;100742.0;;;3.15;45.44
61676;BME280;47574;52.090;5.244;2022-12-15T04:05:23;100741.0;;;3.16;45.22
61676;BME280;47574;52.090;5.244;2022-12-15T04:07:01;100736.0;;;3.24;45.09
61676;BME280;47574;52.090;5.244;2022-12-15T04:08:37;100740.0;;;3.35;44.75
61676;BME280;47574;52.090;5.244;2022-12-15T04:11:50;100739.0;;;3.35;44.87
61676;BME280;47574;52.090;5.244;2022-12-15T04:13:26;100742.0;;;3.43;44.51
61676;BME280;47574;52.090;5.244;2022-12-15T04:15:03;100742.0;;;3.4;44.62
61676;BME280;47574;52.090;5.244;2022-12-15T04:16:40;100741.0;;;3.1;44.95
61676;BME280;47574;52.090;5.244;2022-12-15T04:20:24;100742.0;;;3.01;45.16
61676;BME280;47574;52.090;5.244;2022-12-15T04:22:03;100750.0;;;3.04;44.97
61676;BME280;47574;52.090;5.244;2022-12-15T04:23:39;100755.0;;;2.86;45.5
61676;BME280;47574;52.090;5.244;2022-12-15T05:31:59;100764.0;;;2.44;45.32
61676;BME280;47574;52.090;5.244;2022-12-15T05:35:24;100761.0;;;2.57;45.01
61676;BME280;47574;52.090;5.244;2022-12-15T05:37:01;100763.0;;;2.66;44.91
61676;BME280;47574;52.090;5.244;2022-12-15T05:38:38;100761.0;;;2.64;44.86
61676;BME280;47574;52.090;5.244;2022-12-15T05:41:52;100758.0;;;2.5;45.44
61676;BME280;47574;52.090;5.244;2022-12-15T05:43:29;100759.0;;;2.48;45.49
61676;BME280;47574;52.090;5.244;2022-12-15T05:45:06;100759.0;;;2.38;45.64
61676;BME280;47574;52.090;5.244;2022-12-15T05:46:43;100759.0;;;2.29;45.94
61676;BME280;47574;52.090;5.244;2022-12-15T05:49:55;100765.0;;;2.41;45.84
61676;BME280;47574;52.090;5.244;2022-12-15T05:51:32;100768.0;;;2.33;45.92
61676;BME280;47574;52.090;5.244;2022-12-15T05:53:12;100770.0;;;2.39;45.86
61676;BME280;47574;52.090;5.244;2022-12-15T05:56:26;100776.0;;;2.71;45.25
61676;BME280;47574;52.090;5.244;2022-12-15T05:58:03;100780.0;;;2.75;44.92
61676;BME280;47574;52.090;5.244;2022-12-15T05:59:39;100785.0;;;2.76;45.17
61676;BME280;47574;52.090;5.244;2022-12-15T06:01:17;100790.0;;;3.09;44.53
61676;BME280;47574;52.090;5.244;2022-12-15T06:04:30;100792.0;;;3.07;44.46
61676;BME280;47574;52.090;5.244;2022-12-15T06:06:07;100796.0;;;3.02;44.83
61676;BME280;47574;52.090;5.244;2022-12-15T06:07:45;100796.0;;;3.12;44.73
61676;BME280;47574;52.090;5.244;2022-12-15T06:10:58;100794.0;;;2.98;45.17
61676;BME280;47574;52.090;5.244;2022-12-15T06:12:36;100795.0;;;3.02;45.38
61676;BME280;47574;52.090;5.244;2022-12-15T06:14:12;100792.0;;;3.01;44.91
61676;BME280;47574;52.090;5.244;2022-12-15T06:17:33;100793.0;;;2.62;45.65
61676;BME280;47574;52.090;5.244;2022-12-15T06:19:10;100798.0;;;2.86;45.62
61676;BME280;47574;52.090;5.244;2022-12-15T06:20:46;100796.0;;;2.81;45.53
61676;BME280;47574;52.090;5.244;2022-12-15T06:22:22;100799.0;;;2.56;46.02
61676;BME280;47574;52.090;5.244;2022-12-15T06:25:37;100802.0;;;2.59;45.84
61676;BME280;47574;52.090;5.244;2022-12-15T06:27:13;100805.0;;;2.5;46.12
61676;BME280;47574;52.090;5.244;2022-12-15T06:28:50;100808.0;;;2.52;45.97
61676;BME280;47574;52.090;5.244;2022-12-15T06:32:03;100806.0;;;2.56;45.94
61676;BME280;47574;52.090;5.244;2022-12-15T06:33:40;100801.0;;;2.92;45.27
61676;BME280;47574;52.090;5.244;2022-12-15T06:35:17;100798.0;;;3.1;45.14
61676;BME280;47574;52.090;5.244;2022-12-15T06:36:53;100799.0;;;3.09;45.09
61676;BME280;47574;52.090;5.244;2022-12-15T06:40:08;100799.0;;;3.27;44.86
61676;BME280;47574;52.090;5.244;2022-12-15T06:41:44;100801.0;;;3.16;45.12
61676;BME280;47574;52.090;5.244;2022-12-15T06:43:20;100799.0;;;3.19;44.82
61676;BME280;47574;52.090;5.244;2022-12-15T06:46:33;100799.0;;;3.15;45.03
61676;BME280;47574;52.090;5.244;2022-12-15T06:48:09;100803.0;;;2.93;45.32
61676;BME280;47574;52.090;5.244;2022-12-15T06:49:46;100802.0;;;2.91;45.62
61676;BME280;47574;52.090;5.244;2022-12-15T06:53:03;100809.0;;;2.88;45.45
61676;BME280;47574;52.090;5.244;2022-12-15T06:54:40;100806.0;;;2.84;45.29
61676;BME280;47574;52.090;5.244;2022-12-15T06:56:18;100809.0;;;2.56;45.52
61676;BME280;47574;52.090;5.244;2022-12-15T06:57:55;100810.0;;;2.67;45.47
61676;BME280;47574;52.090;5.244;2022-12-15T07:01:07;100803.0;;;2.32;46.06
61676;BME280;47574;52.090;5.244;2022-12-15T07:02:43;100806.0;;;2.46;46.1
61676;BME280;47574;52.090;5.244;2022-12-15T07:04:20;100807.0;;;2.61;45.44
61676;BME280;47574;52.090;5.244;2022-12-15T07:07:37;100805.0;;;2.41;45.75
61676;BME280;47574;52.090;5.244;2022-12-15T07:09:15;100810.0;;;2.33;46.02
61676;BME280;47574;52.090;5.244;2022-12-15T07:10:52;100810.0;;;2.14;46.46
61676;BME280;47574;52.090;5.244;2022-12-15T07:12:28;100805.0;;;2.29;46.34
61676;BME280;47574;52.090;5.244;2022-12-15T07:15:40;100808.0;;;2.46;45.88
61676;BME280;47574;52.090;5.244;2022-12-15T07:17:17;100808.0;;;2.15;46.71
61676;BME280;47574;52.090;5.244;2022-12-15T07:18:54;100810.0;;;2.4;46.18
61676;BME280;47574;52.090;5.244;2022-12-15T07:22:07;100816.0;;;2.29;46.47
61676;BME280;47574;52.090;5.244;2022-12-15T07:23:43;100819.0;;;2.4;46.08
61676;BME280;47574;52.090;5.244;2022-12-15T07:25:22;100824.0;;;2.7;45.84
61676;BME280;47574;52.090;5.244;2022-12-15T07:28:35;100821.0;;;2.87;45.4
61676;BME280;47574;52.090;5.244;2022-12-15T07:30:14;100827.0;;;2.99;45.54
61676;BME280;47574;52.090;5.244;2022-12-15T07:31:51;100824.0;;;3.22;45.2
61676;BME280;47574;52.090;5.244;2022-12-15T07:33:27;100830.0;;;3.35;44.83
61676;BME280;47574;52.090;5.244;2022-12-15T07:36:42;100828.0;;;3.4;44.75
61676;BME280;47574;52.090;5.244;2022-12-15T07:38:18;100833.0;;;3.4;44.93
61676;BME280;47574;52.090;5.244;2022-12-15T07:39:54;100834.0;;;3.51;44.85
61676;BME280;47574;52.090;5.244;2022-12-15T07:43:06;100842.0;;;3.6;44.78
61676;BME280;47574;52.090;5.244;2022-12-15T07:44:42;100845.0;;;3.57;45.06
61676;BME280;47574;52.090;5.244;2022-12-15T07:46:19;100842.0;;;3.54;45.16
61676;BME280;47574;52.090;5.244;2022-12-15T07:49:31;100840.0;;;3.61;45.3
61676;BME280;47574;52.090;5.244;2022-12-15T07:51:08;100840.0;;;3.58;45.36
61676;BME280;47574;52.090;5.244;2022-12-15T07:52:45;100842.0;;;3.72;45.26
61676;BME280;47574;52.090;5.244;2022-12-15T07:54:22;100839.0;;;3.85;45.0
61676;BME280;47574;52.090;5.244;2022-12-15T07:57:38;100845.0;;;3.69;45.48
61676;BME280;47574;52.090;5.244;2022-12-15T07:59:16;100846.0;;;3.65;45.45
61676;BME280;47574;52.090;5.244;2022-12-15T08:00:52;100848.0;;;3.72;45.64
61676;BME280;47574;52.090;5.244;2022-12-15T08:04:05;100855.0;;;3.74;45.65
61676;BME280;47574;52.090;5.244;2022-12-15T08:05:43;100851.0;;;3.88;45.23
61676;BME280;47574;52.090;5.244;2022-12-15T08:07:20;100855.0;;;3.76;45.58
61676;BME280;47574;52.090;5.244;2022-12-15T08:08:57;100849.0;;;3.79;45.44
61676;BME280;47574;52.090;5.244;2022-12-15T08:12:13;100847.0;;;3.59;45.75
61676;BME280;47574;52.090;5.244;2022-12-15T08:13:49;100846.0;;;3.51;46.01
61676;BME280;47574;52.090;5.244;2022-12-15T08:15:26;100850.0;;;3.68;45.89
61676;BME280;47574;52.090;5.244;2022-12-15T08:18:38;100852.0;;;3.81;45.49
61676;BME280;47574;52.090;5.244;2022-12-15T08:20:15;100855.0;;;3.69;45.62
61676;BME280;47574;52.090;5.244;2022-12-15T08:21:51;100856.0;;;3.87;45.32
61676;BME280;47574;52.090;5.244;2022-12-15T08:25:05;100853.0;;;3.83;45.37
61676;BME280;47574;52.090;5.244;2022-12-15T08:26:43;100855.0;;;3.64;45.55
61676;BME280;47574;52.090;5.244;2022-12-15T08:28:19;100862.0;;;4.07;44.63
61676;BME280;47574;52.090;5.244;2022-12-15T08:29:55;100863.0;;;2.92;46.42
61676;BME280;47574;52.090;5.244;2022-12-15T08:33:10;100869.0;;;2.66;47.35
61676;BME280;47574;52.090;5.244;2022-12-15T08:34:47;100874.0;;;2.09;48.84
61676;BME280;47574;52.090;5.244;2022-12-15T08:36:23;100870.0;;;2.65;47.75
61676;BME280;47574;52.090;5.244;2022-12-15T08:39:36;100872.0;;;2.73;47.85
61676;BME280;47574;52.090;5.244;2022-12-15T08:41:15;100873.0;;;2.88;48.09
61676;BME280;47574;52.090;5.244;2022-12-15T08:42:53;100868.0;;;3.09;47.87
61676;BME280;47574;52.090;5.244;2022-12-15T08:44:29;100871.0;;;3.2;47.51
61676;BME280;47574;52.090;5.244;2022-12-15T08:47:42;100881.0;;;3.17;47.88
61676;BME280;47574;52.090;5.244;2022-12-15T08:49:18;100886.0;;;2.98;48.56
61676;BME280;47574;52.090;5.244;2022-12-15T08:50:55;100885.0;;;3.12;48.08
61676;BME280;47574;52.090;5.244;2022-12-15T08:54:09;100885.0;;;2.7;49.56
61676;BME280;47574;52.090;5.244;2022-12-15T08:55:45;100886.0;;;2.89;49.32
61676;BME280;47574;52.090;5.244;2022-12-15T08:57:21;100886.0;;;2.96;49.32
61676;BME280;47574;52.090;5.244;2022-12-15T09:00:36;100884.0;;;3.04;49.31
61676;BME280;47574;52.090;5.244;2022-12-15T09:02:12;100884.0;;;3.24;48.86
61676;BME280;47574;52.090;5.244;2022-12-15T09:03:49;100883.0;;;3.2;48.8
61676;BME280;47574;52.090;5.244;2022-12-15T09:05:26;100886.0;;;3.1;49.44
61676;BME280;47574;52.090;5.244;2022-12-15T09:08:40;100884.0;;;3.31;49.39
61676;BME280;47574;52.090;5.244;2022-12-15T09:10:16;100885.0;;;3.34;49.41
61676;BME280;47574;52.090;5.244;2022-12-15T09:11:52;100887.0;;;3.51;49.28
61676;BME280;47574;52.090;5.244;2022-12-15T09:15:06;100883.0;;;3.14;50.22
61676;BME280;47574;52.090;5.244;2022-12-15T09:16:43;100884.0;;;3.01;50.9
61676;BME280;47574;52.090;5.244;2022-12-15T09:18:19;100887.0;;;3.11;50.9
61676;BME280;47574;52.090;5.244;2022-12-15T09:21:31;100888.0;;;3.57;49.89
61676;BME280;47574;52.090;5.244;2022-12-15T09:23:07;100890.0;;;3.85;49.34
61676;BME280;47574;52.090;5.244;2022-12-15T09:24:44;100894.0;;;3.76;49.79
61676;BME280;47574;52.090;5.244;2022-12-15T09:26:22;100903.0;;;3.76;50.12
61676;BME280;47574;52.090;5.244;2022-12-15T09:29:34;100906.0;;;3.79;50.09
61676;BME280;47574;52.090;5.244;2022-12-15T09:31:12;100909.0;;;3.86;50.08
61676;BME280;47574;52.090;5.244;2022-12-15T09:32:50;100907.0;;;3.74;50.44
61676;BME280;47574;52.090;5.244;2022-12-15T09:36:04;100905.0;;;4.05;49.93
61676;BME280;47574;52.090;5.244;2022-12-15T09:37:41;100905.0;;;4.14;49.6
61676;BME280;47574;52.090;5.244;2022-12-15T09:39:18;100903.0;;;3.96;49.95
61676;BME280;47574;52.090;5.244;2022-12-15T09:42:30;100908.0;;;4.05;50.06
61676;BME280;47574;52.090;5.244;2022-12-15T09:44:11;100910.0;;;4.38;49.7
61676;BME280;47574;52.090;5.244;2022-12-15T09:45:56;100915.0;;;4.33;49.74
61676;BME280;47574;52.090;5.244;2022-12-15T09:47:41;100920.0;;;4.51;49.37
61676;BME280;47574;52.090;5.244;2022-12-15T09:49:35;100915.0;;;4.46;49.42
61676;BME280;47574;52.090;5.244;2022-12-15T09:53:09;100918.0;;;4.72;48.95
61676;BME280;47574;52.090;5.244;2022-12-15T09:54:47;100922.0;;;4.74;49.1
61676;BME280;47574;52.090;5.244;2022-12-15T09:56:33;100923.0;;;4.55;49.5
61676;BME280;47574;52.090;5.244;2022-12-15T09:58:18;100927.0;;;4.67;49.36
61676;BME280;47574;52.090;5.244;2022-12-15T10:00:13;100934.0;;;4.55;49.65
61676;BME280;47574;52.090;5.244;2022-12-15T10:01:57;100936.0;;;4.57;49.91
61676;BME280;47574;52.090;5.244;2022-12-15T10:05:48;100939.0;;;4.47;50.24
61676;BME280;47574;52.090;5.244;2022-12-15T10:07:31;100940.0;;;4.93;49.37
61676;BME280;47574;52.090;5.244;2022-12-15T10:09:16;100949.0;;;4.87;49.45
61676;BME280;47574;52.090;5.244;2022-12-15T10:10:55;100945.0;;;4.91;49.37
61676;BME280;47574;52.090;5.244;2022-12-15T10:12:35;100943.0;;;4.96;49.15
61676;BME280;47574;52.090;5.244;2022-12-15T10:16:03;100945.0;;;4.76;49.83
61676;BME280;47574;52.090;5.244;2022-12-15T10:17:46;100943.0;;;5.18;49.04
61676;BME280;47574;52.090;5.244;2022-12-15T10:19:30;100939.0;;;5.28;48.89
61676;BME280;47574;52.090;5.244;2022-12-15T10:21:10;100935.0;;;5.32;48.93
61676;BME280;47574;52.090;5.244;2022-12-15T10:22:47;100932.0;;;5.31;48.88
61676;BME280;47574;52.090;5.244;2022-12-15T10:26:16;100928.0;;;5.12;49.35
61676;BME280;47574;52.090;5.244;2022-12-15T10:28:15;100928.0;;;5.12;49.54
61676;BME280;47574;52.090;5.244;2022-12-15T10:29:59;100917.0;;;5.4;48.97
61676;BME280;47574;52.090;5.244;2022-12-15T10:31:42;100918.0;;;5.36;49.24
61676;BME280;47574;52.090;5.244;2022-12-15T10:33:26;100928.0;;;5.15;49.77
61676;BME280;47574;52.090;5.244;2022-12-15T10:36:54;100924.0;;;5.51;49.2
61676;BME280;47574;52.090;5.244;2022-12-15T10:38:33;100939.0;;;5.31;49.72
61676;BME280;47574;52.090;5.244;2022-12-15T10:40:15;100932.0;;;5.55;49.24
61676;BME280;47574;52.090;5.244;2022-12-15T10:42:25;100936.0;;;5.59;49.11
61676;BME280;47574;52.090;5.244;2022-12-15T10:44:02;100940.0;;;5.75;48.94
61676;BME280;47574;52.090;5.244;2022-12-15T10:47:19;100940.0;;;5.83;49.1
61676;BME280;47574;52.090;5.244;2022-12-15T10:48:58;100938.0;;;6.06;48.85
61676;BME280;47574;52.090;5.244;2022-12-15T10:50:34;100935.0;;;5.97;49.07
61676;BME280;47574;52.090;5.244;2022-12-15T10:52:18;100931.0;;;5.91;49.21
61676;BME280;47574;52.090;5.244;2022-12-15T10:55:47;100930.0;;;6.09;48.98
61676;BME280;47574;52.090;5.244;2022-12-15T10:57:24;100930.0;;;6.32;48.49
61676;BME280;47574;52.090;5.244;2022-12-15T10:59:21;100933.0;;;6.55;48.23
61676;BME280;47574;52.090;5.244;2022-12-15T11:01:06;100930.0;;;6.57;48.07
61676;BME280;47574;52.090;5.244;2022-12-15T11:02:43;100930.0;;;6.3;48.67
61676;BME280;47574;52.090;5.244;2022-12-15T11:06:11;100925.0;;;6.4;48.77
61676;BME280;47574;52.090;5.244;2022-12-15T11:07:52;100926.0;;;6.55;48.55
61676;BME280;47574;52.090;5.244;2022-12-15T11:09:32;100925.0;;;6.33;49.35
61676;BME280;47574;52.090;5.244;2022-12-15T11:13:09;100921.0;;;6.64;48.69
61676;BME280;47574;52.090;5.244;2022-12-15T11:14:55;100913.0;;;6.78;48.64
61676;BME280;47574;52.090;5.244;2022-12-15T11:16:32;100909.0;;;6.88;48.51
61676;BME280;47574;52.090;5.244;2022-12-15T11:18:22;100912.0;;;7.01;48.26
61676;BME280;47574;52.090;5.244;2022-12-15T11:20:05;100910.0;;;6.91;48.58
61676;BME280;47574;52.090;5.244;2022-12-15T11:21:56;100908.0;;;7.05;48.4
61676;BME280;47574;52.090;5.244;2022-12-15T11:23:46;100916.0;;;6.81;49.25
61676;BME280;47574;52.090;5.244;2022-12-15T11:25:36;100914.0;;;7.03;48.68
61676;BME280;47574;52.090;5.244;2022-12-15T11:29:06;100913.0;;;7.08;48.71
61676;BME280;47574;52.090;5.244;2022-12-15T11:30:56;100910.0;;;7.12;48.7
61676;BME280;47574;52.090;5.244;2022-12-15T11:32:43;100910.0;;;7.11;48.74
61676;BME280;47574;52.090;5.244;2022-12-15T11:34:23;100912.0;;;7.16;48.86
61676;BME280;47574;52.090;5.244;2022-12-15T11:36:07;100906.0;;;7.26;48.79
61676;BME280;47574;52.090;5.244;2022-12-15T11:39:47;100909.0;;;7.28;48.79
61676;BME280;47574;52.090;5.244;2022-12-15T11:42:21;100908.0;;;7.43;48.79
61676;BME280;47574;52.090;5.244;2022-12-15T11:46:08;100907.0;;;7.43;48.92
61676;BME280;47574;52.090;5.244;2022-12-15T11:47:58;100900.0;;;7.55;48.64
61676;BME280;47574;52.090;5.244;2022-12-15T11:49:51;100896.0;;;7.53;48.8
61676;BME280;47574;52.090;5.244;2022-12-15T11:52:34;100900.0;;;7.55;48.77
61676;BME280;47574;52.090;5.244;2022-12-15T11:54:27;100905.0;;;7.62;48.67
61676;BME280;47574;52.090;5.244;2022-12-15T11:56:12;100903.0;;;7.52;49.04
61676;BME280;47574;52.090;5.244;2022-12-15T11:58:05;100908.0;;;7.71;48.66
61676;BME280;47574;52.090;5.244;2022-12-15T12:00:02;100907.0;;;7.7;48.73
61676;BME280;47574;52.090;5.244;2022-12-15T12:01:55;100910.0;;;7.83;48.44
61676;BME280;47574;52.090;5.244;2022-12-15T12:03:48;100912.0;;;7.46;49.31
61676;BME280;47574;52.090;5.244;2022-12-15T12:05:35;100912.0;;;7.43;49.5
61676;BME280;47574;52.090;5.244;2022-12-15T12:09:27;100911.0;;;7.49;49.32
61676;BME280;47574;52.090;5.244;2022-12-15T12:11:11;100912.0;;;7.45;49.38
61676;BME280;47574;52.090;5.244;2022-12-15T12:12:54;100907.0;;;7.44;49.61
61676;BME280;47574;52.090;5.244;2022-12-15T12:14:42;100909.0;;;7.37;49.87
61676;BME280;47574;52.090;5.244;2022-12-15T12:16:30;100908.0;;;7.31;50.05
61676;BME280;47574;52.090;5.244;2022-12-15T12:18:17;100903.0;;;7.51;49.69
61676;BME280;47574;52.090;5.244;2022-12-15T12:19:58;100899.0;;;7.59;49.46
61676;BME280;47574;52.090;5.244;2022-12-15T12:23:23;100900.0;;;7.63;49.43
61676;BME280;47574;52.090;5.244;2022-12-15T12:25:04;100899.0;;;7.42;50.01
61676;BME280;47574;52.090;5.244;2022-12-15T12:26:51;100895.0;;;7.42;49.97
61676;BME280;47574;52.090;5.244;2022-12-15T12:28:40;100892.0;;;7.38;50.22
61676;BME280;47574;52.090;5.244;2022-12-15T12:32:03;100886.0;;;7.47;50.05
61676;BME280;47574;52.090;5.244;2022-12-15T12:33:44;100885.0;;;7.44;50.21
61676;BME280;47574;52.090;5.244;2022-12-15T12:35:27;100886.0;;;7.48;50.25
61676;BME280;47574;52.090;5.244;2022-12-15T12:37:16;100887.0;;;7.7;49.75
61676;BME280;47574;52.090;5.244;2022-12-15T12:38:58;100883.0;;;7.84;49.51
61676;BME280;47574;52.090;5.244;2022-12-15T12:42:32;100883.0;;;7.8;49.73
61676;BME280;47574;52.090;5.244;2022-12-15T12:44:20;100887.0;;;7.72;50.15
61676;BME280;47574;52.090;5.244;2022-12-15T12:46:08;100886.0;;;7.71;50.36
61676;BME280;47574;52.090;5.244;2022-12-15T12:47:51;100888.0;;;7.91;50.04
61676;BME280;47574;52.090;5.244;2022-12-15T12:49:32;100882.0;;;7.83;50.11
61676;BME280;47574;52.090;5.244;2022-12-15T12:53:23;100881.0;;;8.0;49.85
61676;BME280;47574;52.090;5.244;2022-12-15T12:55:23;100880.0;;;8.17;49.63
61676;BME280;47574;52.090;5.244;2022-12-15T12:57:01;100876.0;;;7.99;50.09
61676;BME280;47574;52.090;5.244;2022-12-15T12:59:40;100872.0;;;7.83;50.41
61676;BME280;47574;52.090;5.244;2022-12-15T13:01:25;100869.0;;;7.83;50.63
61676;BME280;47574;52.090;5.244;2022-12-15T13:03:15;100864.0;;;7.99;50.25
61676;BME280;47574;52.090;5.244;2022-12-15T13:05:00;100861.0;;;8.09;50.26
61676;BME280;47574;52.090;5.244;2022-12-15T13:07:00;100859.0;;;8.09;50.31
61676;BME280;47574;52.090;5.244;2022-12-15T13:08:47;100855.0;;;8.16;50.27
61676;BME280;47574;52.090;5.244;2022-12-15T13:10:26;100853.0;;;8.06;50.57
61676;BME280;47574;52.090;5.244;2022-12-15T13:13:42;100848.0;;;8.3;49.98
61676;BME280;47574;52.090;5.244;2022-12-15T13:15:33;100848.0;;;8.41;49.72
61676;BME280;47574;52.090;5.244;2022-12-15T13:17:27;100842.0;;;8.33;50.11
61676;BME280;47574;52.090;5.244;2022-12-15T13:19:05;100849.0;;;8.39;49.77
61676;BME280;47574;52.090;5.244;2022-12-15T13:20:44;100850.0;;;8.47;49.68
61676;BME280;47574;52.090;5.244;2022-12-15T13:24:29;100848.0;;;8.45;49.57
61676;BME280;47574;52.090;5.244;2022-12-15T13:26:11;100851.0;;;8.41;49.81
61676;BME280;47574;52.090;5.244;2022-12-15T13:27:50;100847.0;;;8.43;49.69
61676;BME280;47574;52.090;5.244;2022-12-15T13:29:28;100844.0;;;8.42;49.91
61676;BME280;47574;52.090;5.244;2022-12-15T13:31:23;100843.0;;;8.67;49.5
61676;BME280;47574;52.090;5.244;2022-12-15T13:34:51;100835.0;;;8.73;49.45
61676;BME280;47574;52.090;5.244;2022-12-15T13:36:45;100832.0;;;8.93;49.05